createdAt,value
2022-11-16T00:05:32.986Z,3.95
2022-11-16T00:13:54.608Z,3.92
2022-11-16T00:22:17.604Z,3.92
2022-11-16T00:30:40.187Z,3.92
2022-11-16T00:39:02.855Z,3.97
2022-11-16T00:47:24.504Z,3.95
2022-11-16T00:55:47.335Z,3.92
2022-11-16T01:04:10.603Z,3.93
2022-11-16T01:12:32.179Z,3.95
2022-11-16T01:20:54.397Z,3.97
2022-11-16T01:29:16.446Z,3.99
2022-11-16T01:37:44.119Z,4.00
2022-11-16T01:46:06.696Z,3.99
2022-11-16T01:54:32.100Z,4.04
2022-11-16T02:02:54.605Z,4.08
2022-11-16T02:11:54.671Z,4.08
2022-11-16T02:20:38.750Z,4.07
2022-11-16T02:29:19.689Z,4.08
2022-11-16T02:37:53.826Z,4.08
2022-11-16T02:46:25.487Z,4.10
2022-11-16T02:54:47.187Z,4.05
2022-11-16T03:03:24.598Z,4.07
2022-11-16T03:11:59.001Z,4.05
2022-11-16T03:20:28.852Z,4.02
2022-11-16T03:29:00.527Z,3.98
2022-11-16T03:37:25.441Z,3.93
2022-11-16T03:45:48.207Z,3.92
2022-11-16T03:54:10.254Z,3.88
2022-11-16T04:02:34.129Z,3.86
2022-11-16T04:11:14.583Z,3.86
2022-11-16T04:19:58.358Z,3.84
2022-11-16T04:28:30.464Z,3.82
2022-11-16T04:37:15.414Z,3.90
2022-11-16T04:45:56.014Z,3.92
2022-11-16T04:54:21.645Z,3.90
2022-11-16T05:02:44.197Z,3.83
2022-11-16T05:11:06.120Z,3.77
2022-11-16T05:19:46.919Z,3.66
2022-11-16T05:28:08.766Z,3.63
2022-11-16T05:36:34.366Z,3.66
2022-11-16T05:44:56.834Z,3.67
2022-11-16T05:53:18.467Z,3.72
2022-11-16T06:01:40.234Z,3.75
2022-11-16T06:10:03.762Z,3.76
2022-11-16T06:18:27.613Z,3.80
2022-11-16T06:26:49.764Z,3.87
2022-11-16T06:35:12.138Z,3.84
2022-11-16T06:43:34.122Z,3.81
2022-11-16T06:51:56.010Z,3.82
2022-11-16T07:00:18.583Z,3.83
2022-11-16T07:08:41.902Z,3.84
2022-11-16T07:17:09.270Z,3.92
2022-11-16T07:25:33.338Z,3.97
2022-11-16T07:34:53.382Z,3.95
2022-11-16T07:43:39.939Z,3.90
2022-11-16T07:52:10.273Z,3.85
2022-11-16T08:00:52.083Z,3.92
2022-11-16T08:09:14.170Z,3.98
2022-11-16T08:17:36.267Z,3.92
2022-11-16T08:26:01.173Z,3.85
2022-11-16T08:34:24.083Z,3.78
2022-11-16T08:42:48.043Z,3.78
2022-11-16T08:51:18.576Z,3.82
2022-11-16T08:59:45.385Z,3.85
2022-11-16T09:08:08.521Z,3.77
2022-11-16T09:16:30.263Z,3.67
2022-11-16T09:24:52.037Z,3.63
2022-11-16T09:44:09.006Z,3.62
2022-11-16T09:52:33.498Z,3.58
2022-11-16T10:01:07.429Z,3.60
2022-11-16T10:09:30.075Z,3.66
2022-11-16T10:17:51.699Z,3.69
2022-11-16T10:26:27.578Z,3.65
2022-11-16T10:35:01.336Z,3.71
2022-11-16T10:43:27.712Z,3.79
2022-11-16T10:51:49.914Z,3.81
2022-11-16T11:00:12.884Z,3.85
2022-11-16T11:08:37.123Z,3.91
2022-11-16T11:17:11.827Z,4.02
2022-11-16T11:25:41.143Z,4.07
2022-11-16T11:34:10.913Z,4.08
2022-11-16T11:42:33.255Z,4.14
2022-11-16T11:51:00.526Z,4.15
2022-11-16T11:59:24.815Z,4.14
2022-11-16T12:08:04.108Z,4.15
2022-11-16T12:17:06.579Z,4.22
2022-11-16T12:25:41.095Z,4.26
2022-11-16T12:34:09.629Z,4.32
2022-11-16T12:43:00.452Z,4.27
2022-11-16T12:51:31.778Z,4.20
2022-11-16T13:00:07.159Z,4.18
2022-11-16T13:08:47.169Z,4.19
2022-11-16T13:17:17.116Z,4.17
2022-11-16T13:26:09.614Z,4.17
2022-11-16T13:34:34.994Z,4.20
2022-11-16T13:43:09.535Z,4.22
2022-11-16T13:51:31.532Z,4.18
2022-11-16T14:00:09.793Z,4.16
2022-11-16T14:08:37.934Z,4.15
2022-11-16T14:17:00.081Z,4.10
2022-11-16T14:25:49.666Z,4.06
2022-11-16T14:34:17.870Z,4.04
2022-11-16T14:43:16.842Z,4.00
2022-11-16T14:51:46.977Z,3.90
2022-11-16T15:00:24.969Z,3.74
2022-11-16T15:08:55.188Z,3.59
2022-11-16T15:17:19.635Z,3.48
2022-11-16T15:25:42.555Z,3.30
2022-11-16T15:34:04.298Z,3.17
2022-11-16T15:42:33.679Z,3.07
2022-11-16T15:51:19.829Z,2.99
2022-11-16T15:59:48.158Z,2.90
2022-11-16T16:08:22.418Z,2.84
2022-11-16T16:16:50.479Z,2.80
2022-11-16T16:25:30.405Z,2.76
2022-11-16T16:33:52.178Z,2.75
2022-11-16T16:42:16.726Z,2.74
2022-11-16T16:50:38.841Z,2.74
2022-11-16T16:59:00.438Z,2.73
2022-11-16T17:07:22.391Z,2.71
2022-11-16T17:15:44.379Z,2.69
2022-11-16T17:24:06.290Z,2.68
2022-11-16T17:32:29.726Z,2.70
2022-11-16T17:40:51.295Z,2.65
2022-11-16T17:49:12.906Z,2.64
2022-11-16T17:57:34.789Z,2.64
2022-11-16T18:06:04.398Z,2.61
2022-11-16T18:14:26.304Z,2.62
2022-11-16T18:22:47.931Z,2.62
2022-11-16T18:31:12.261Z,2.60
2022-11-16T18:39:33.930Z,2.62
2022-11-16T18:47:55.657Z,2.64
2022-11-16T18:56:18.297Z,2.63
2022-11-16T19:04:39.885Z,2.60
2022-11-16T19:13:01.483Z,2.60
2022-11-16T19:21:23.363Z,2.56
2022-11-16T19:29:45.129Z,2.56
2022-11-16T19:38:09.180Z,2.56
2022-11-16T19:46:32.600Z,2.52
2022-11-16T19:54:58.594Z,2.47
2022-11-16T20:03:21.511Z,2.41
2022-11-16T20:11:45.430Z,2.38
2022-11-16T20:20:08.598Z,2.37
2022-11-16T20:28:33.747Z,2.33
2022-11-16T20:36:55.334Z,2.32
2022-11-16T20:45:16.867Z,2.28
2022-11-16T20:53:38.905Z,2.26
2022-11-16T21:02:00.407Z,2.24
2022-11-16T21:10:22.005Z,2.22
2022-11-16T21:18:43.698Z,2.22
2022-11-16T21:27:05.407Z,2.23
2022-11-16T21:35:27.157Z,2.21
2022-11-16T21:43:49.926Z,2.17
2022-11-16T21:52:11.500Z,2.14
2022-11-16T22:00:33.495Z,2.08
2022-11-16T22:08:55.020Z,2.03
2022-11-16T22:17:16.825Z,1.98
2022-11-16T22:25:38.574Z,1.95
2022-11-16T22:34:00.249Z,1.94
2022-11-16T22:42:22.477Z,1.89
2022-11-16T22:50:44.294Z,1.89
2022-11-16T22:59:06.031Z,1.88
2022-11-16T23:07:27.705Z,1.89
2022-11-16T23:15:49.354Z,1.82
2022-11-16T23:24:33.585Z,1.77
2022-11-16T23:32:55.143Z,1.72
2022-11-16T23:41:35.286Z,1.71
2022-11-16T23:49:56.941Z,1.70
2022-11-16T23:58:18.587Z,1.71
